createdAt,value
2022-10-31T00:00:15.863Z,6.65
2022-10-31T00:01:28.497Z,6.07
2022-10-31T00:02:30.119Z,6.30
2022-10-31T00:03:31.834Z,6.88
2022-10-31T00:04:33.464Z,6.75
2022-10-31T00:05:35.035Z,7.07
2022-10-31T00:06:36.649Z,6.40
2022-10-31T00:07:38.249Z,6.50
2022-10-31T00:08:40.030Z,7.50
2022-10-31T00:09:41.649Z,6.53
2022-10-31T00:10:44.343Z,7.00
2022-10-31T00:11:46.020Z,6.75
2022-10-31T00:12:47.660Z,7.18
2022-10-31T00:13:49.275Z,6.25
2022-10-31T00:14:50.846Z,6.95
2022-10-31T00:15:52.486Z,6.90
2022-10-31T00:16:54.080Z,6.38
2022-10-31T00:17:55.780Z,7.05
2022-10-31T00:19:00.445Z,6.95
2022-10-31T00:20:02.155Z,7.05
2022-10-31T00:21:04.563Z,7.30
2022-10-31T00:22:06.133Z,5.65
2022-10-31T00:23:08.047Z,6.68
2022-10-31T00:24:09.742Z,6.82
2022-10-31T00:25:11.340Z,6.47
2022-10-31T00:26:13.458Z,6.43
2022-10-31T00:27:15.175Z,6.22
2022-10-31T00:28:16.831Z,7.07
2022-10-31T00:29:18.633Z,5.65
2022-10-31T00:30:20.332Z,6.25
2022-10-31T00:31:21.940Z,5.60
2022-10-31T00:32:23.527Z,6.32
2022-10-31T00:33:25.150Z,5.60
2022-10-31T00:34:26.791Z,5.90
2022-10-31T00:35:28.409Z,6.10
2022-10-31T00:36:30.036Z,6.63
2022-10-31T00:37:31.623Z,5.80
2022-10-31T00:38:33.770Z,5.57
2022-10-31T00:39:35.373Z,6.05
2022-10-31T00:40:36.998Z,6.22
2022-10-31T00:41:38.574Z,5.88
2022-10-31T00:42:42.435Z,5.72
2022-10-31T00:43:44.659Z,6.07
2022-10-31T00:44:46.368Z,5.57
2022-10-31T00:45:48.023Z,5.80
2022-10-31T00:46:49.645Z,5.57
2022-10-31T00:47:51.488Z,5.65
2022-10-31T00:48:53.176Z,5.90
2022-10-31T00:49:54.942Z,5.70
2022-10-31T00:50:56.921Z,6.10
2022-10-31T00:51:58.540Z,6.55
2022-10-31T00:53:00.197Z,5.72
2022-10-31T00:54:01.779Z,5.80
2022-10-31T00:55:03.665Z,5.75
2022-10-31T00:56:05.957Z,5.63
2022-10-31T00:57:07.562Z,6.30
2022-10-31T00:58:09.324Z,6.60
2022-10-31T00:59:10.925Z,5.75
2022-10-31T01:00:12.886Z,5.05
2022-10-31T01:01:14.576Z,6.70
2022-10-31T01:02:17.396Z,5.65
2022-10-31T01:03:19.115Z,5.88
2022-10-31T01:04:20.785Z,6.75
2022-10-31T01:05:22.467Z,7.18
2022-10-31T01:06:24.163Z,7.50
2022-10-31T01:07:25.736Z,7.60
2022-10-31T01:08:27.888Z,7.25
2022-10-31T01:09:29.500Z,7.20
2022-10-31T01:10:31.130Z,6.63
2022-10-31T01:11:32.773Z,7.53
2022-10-31T01:12:38.905Z,7.57
2022-10-31T01:13:41.220Z,7.78
2022-10-31T01:14:45.645Z,6.50
2022-10-31T01:15:55.292Z,6.65
2022-10-31T01:16:56.876Z,7.22
2022-10-31T01:17:58.793Z,7.40
2022-10-31T01:19:00.631Z,6.50
2022-10-31T01:20:02.502Z,7.18
2022-10-31T01:21:19.786Z,6.45
2022-10-31T01:22:21.363Z,7.28
2022-10-31T01:23:22.955Z,6.65
2022-10-31T01:24:24.672Z,6.57
2022-10-31T01:25:26.284Z,6.60
2022-10-31T01:26:31.662Z,6.93
2022-10-31T01:27:33.339Z,6.85
2022-10-31T01:28:36.962Z,6.82
2022-10-31T01:29:38.588Z,6.55
2022-10-31T01:30:40.198Z,6.20
2022-10-31T01:31:41.862Z,5.85
2022-10-31T01:32:43.455Z,6.82
2022-10-31T01:33:45.341Z,5.80
2022-10-31T01:34:46.933Z,6.53
2022-10-31T01:35:48.509Z,6.10
2022-10-31T01:36:52.281Z,6.43
2022-10-31T01:37:54.076Z,6.45
2022-10-31T01:38:59.469Z,6.75
2022-10-31T01:40:01.139Z,6.45
2022-10-31T01:41:02.755Z,6.25
2022-10-31T01:42:04.395Z,5.70
2022-10-31T01:43:05.994Z,6.20
2022-10-31T01:44:16.336Z,5.80
2022-10-31T01:45:18.801Z,6.40
2022-10-31T01:46:28.310Z,5.65
2022-10-31T01:47:46.337Z,6.30
2022-10-31T01:48:48.508Z,6.55
2022-10-31T01:50:00.047Z,6.20
2022-10-31T01:51:02.165Z,5.80
2022-10-31T01:52:09.810Z,5.97
2022-10-31T01:53:12.892Z,6.63
2022-10-31T01:54:19.078Z,6.30
2022-10-31T01:55:34.927Z,6.55
2022-10-31T01:56:41.555Z,5.43
2022-10-31T01:57:46.188Z,5.63
2022-10-31T01:58:48.200Z,5.53
2022-10-31T01:59:54.298Z,5.40
2022-10-31T02:01:01.905Z,5.93
2022-10-31T02:02:07.710Z,6.38
2022-10-31T02:03:09.427Z,5.45
2022-10-31T02:04:11.340Z,5.72
2022-10-31T02:05:20.871Z,6.10
2022-10-31T02:06:39.440Z,5.68
2022-10-31T02:07:52.732Z,6.25
2022-10-31T02:08:55.654Z,5.43
2022-10-31T02:09:58.476Z,5.65
2022-10-31T02:11:02.184Z,5.72
2022-10-31T02:12:04.546Z,6.20
2022-10-31T02:13:08.238Z,5.30
2022-10-31T02:14:09.839Z,5.47
2022-10-31T02:15:11.741Z,6.00
2022-10-31T02:16:13.397Z,5.25
2022-10-31T02:17:15.661Z,5.47
2022-10-31T02:18:18.425Z,6.60
2022-10-31T02:19:43.193Z,5.03
2022-10-31T02:20:57.086Z,5.80
2022-10-31T02:22:10.382Z,6.03
2022-10-31T02:23:28.897Z,5.75
2022-10-31T02:24:59.281Z,5.93
2022-10-31T02:26:25.708Z,6.50
2022-10-31T02:27:49.608Z,5.95
2022-10-31T02:29:06.352Z,6.65
2022-10-31T02:30:23.737Z,7.60
2022-10-31T02:31:44.770Z,5.95
2022-10-31T02:33:01.197Z,6.18
2022-10-31T02:34:24.982Z,6.00
2022-10-31T02:35:44.579Z,6.25
2022-10-31T02:37:07.304Z,6.32
2022-10-31T02:38:37.552Z,6.70
2022-10-31T02:40:11.447Z,6.18
2022-10-31T02:41:33.929Z,6.55
2022-10-31T02:42:50.035Z,6.13
2022-10-31T02:44:16.122Z,6.07
2022-10-31T02:45:34.863Z,7.18
2022-10-31T02:46:46.271Z,6.78
2022-10-31T02:47:51.287Z,7.57
2022-10-31T02:48:58.640Z,7.30
2022-10-31T02:50:06.503Z,7.10
2022-10-31T02:51:09.538Z,5.63
2022-10-31T02:52:22.014Z,6.57
2022-10-31T02:53:23.726Z,6.20
2022-10-31T02:54:28.027Z,6.68
2022-10-31T02:55:29.575Z,6.15
2022-10-31T02:56:31.288Z,6.18
2022-10-31T02:57:36.177Z,6.57
2022-10-31T02:58:59.802Z,7.07
2022-10-31T03:00:07.434Z,6.53
2022-10-31T03:01:37.062Z,6.00
2022-10-31T03:02:54.989Z,6.45
2022-10-31T03:04:17.364Z,6.40
2022-10-31T03:05:18.921Z,6.45
2022-10-31T03:06:24.840Z,5.70
2022-10-31T03:07:42.083Z,6.07
2022-10-31T03:09:17.031Z,5.90
2022-10-31T03:10:39.382Z,6.13
2022-10-31T03:12:00.181Z,6.80
2022-10-31T03:14:50.289Z,5.95
2022-10-31T03:15:57.346Z,6.25
2022-10-31T03:17:03.799Z,6.15
2022-10-31T03:18:14.164Z,5.70
2022-10-31T03:19:32.400Z,5.25
2022-10-31T03:20:41.191Z,5.75
2022-10-31T03:21:48.302Z,5.85
2022-10-31T03:22:50.015Z,6.82
2022-10-31T03:23:54.764Z,6.40
2022-10-31T03:24:58.583Z,6.20
2022-10-31T03:26:03.258Z,5.38
2022-10-31T03:27:08.815Z,6.38
2022-10-31T03:28:13.976Z,6.18
2022-10-31T03:29:19.577Z,5.50
2022-10-31T03:30:21.305Z,5.55
2022-10-31T03:31:28.683Z,5.45
2022-10-31T03:32:39.591Z,5.55
2022-10-31T03:33:43.342Z,5.00
2022-10-31T03:34:47.006Z,6.20
2022-10-31T03:35:53.244Z,6.13
2022-10-31T03:36:58.443Z,5.57
2022-10-31T03:38:06.783Z,5.20
2022-10-31T03:39:13.816Z,5.03
2022-10-31T03:40:17.024Z,4.72
2022-10-31T03:41:28.570Z,5.95
2022-10-31T03:42:36.911Z,5.97
2022-10-31T03:43:43.687Z,6.20
2022-10-31T03:44:54.298Z,5.50
2022-10-31T03:45:56.538Z,6.13
2022-10-31T03:46:58.515Z,7.63
2022-10-31T03:48:01.269Z,6.82
2022-10-31T03:49:04.243Z,7.70
2022-10-31T03:50:08.442Z,6.43
2022-10-31T03:51:41.704Z,6.40
2022-10-31T03:53:00.526Z,6.68
2022-10-31T03:54:10.848Z,6.70
2022-10-31T03:55:26.975Z,6.38
2022-10-31T03:56:49.857Z,7.60
2022-10-31T03:58:16.381Z,6.85
2022-10-31T03:59:29.591Z,7.20
2022-10-31T04:00:34.316Z,7.40
2022-10-31T04:01:40.952Z,6.95
2022-10-31T04:02:57.227Z,6.40
2022-10-31T04:03:59.845Z,6.22
2022-10-31T04:05:02.247Z,6.53
2022-10-31T04:06:10.650Z,6.32
2022-10-31T04:07:13.324Z,6.10
2022-10-31T04:08:19.853Z,5.63
2022-10-31T04:09:22.935Z,6.13
2022-10-31T04:10:31.841Z,5.80
2022-10-31T04:11:41.564Z,6.25
2022-10-31T04:12:50.049Z,6.70
2022-10-31T04:13:54.082Z,6.30
2022-10-31T04:14:56.716Z,5.68
2022-10-31T04:15:58.946Z,6.95
2022-10-31T04:17:02.395Z,6.22
2022-10-31T04:18:06.003Z,5.85
2022-10-31T04:19:07.636Z,6.22
2022-10-31T04:20:09.739Z,5.60
2022-10-31T04:21:11.524Z,6.50
2022-10-31T04:22:13.528Z,6.13
2022-10-31T04:23:21.638Z,5.93
2022-10-31T04:24:23.355Z,6.57
2022-10-31T04:25:24.934Z,6.35
2022-10-31T04:26:28.061Z,6.88
2022-10-31T04:27:29.722Z,5.93
2022-10-31T04:28:31.483Z,6.45
2022-10-31T04:29:33.054Z,6.78
2022-10-31T04:30:34.647Z,6.50
2022-10-31T04:31:36.262Z,7.55
2022-10-31T04:32:37.833Z,7.53
2022-10-31T04:33:39.529Z,7.50
2022-10-31T04:34:41.136Z,8.40
2022-10-31T04:35:42.795Z,8.55
2022-10-31T04:36:44.429Z,7.65
2022-10-31T04:37:46.080Z,8.43
2022-10-31T04:38:47.705Z,7.80
2022-10-31T04:39:49.334Z,8.32
2022-10-31T04:40:50.938Z,8.00
2022-10-31T04:41:52.684Z,8.07
2022-10-31T04:42:54.381Z,8.50
2022-10-31T04:43:56.041Z,8.23
2022-10-31T04:44:57.640Z,7.70
2022-10-31T04:45:59.306Z,7.68
2022-10-31T04:47:00.992Z,8.10
2022-10-31T04:48:02.929Z,6.97
2022-10-31T04:49:04.839Z,8.20
2022-10-31T04:50:06.849Z,8.05
2022-10-31T04:51:08.516Z,7.97
2022-10-31T04:52:10.168Z,7.28
2022-10-31T04:53:11.807Z,8.18
2022-10-31T04:54:13.382Z,7.28
2022-10-31T04:55:15.354Z,7.10
2022-10-31T04:56:17.035Z,6.85
2022-10-31T04:57:18.804Z,7.07
2022-10-31T04:58:20.432Z,6.82
2022-10-31T04:59:22.095Z,7.53
2022-10-31T05:00:23.944Z,6.78
2022-10-31T05:01:25.684Z,7.03
2022-10-31T05:02:27.417Z,6.57
2022-10-31T05:03:29.065Z,6.97
2022-10-31T05:04:30.655Z,7.30
2022-10-31T05:05:32.942Z,7.32
2022-10-31T05:06:34.524Z,6.90
2022-10-31T05:07:40.683Z,6.10
2022-10-31T05:08:42.287Z,7.07
2022-10-31T05:09:43.870Z,6.80
2022-10-31T05:10:45.573Z,6.78
2022-10-31T05:11:47.194Z,6.70
2022-10-31T05:12:57.546Z,6.38
2022-10-31T05:13:59.407Z,7.05
2022-10-31T05:15:01.001Z,6.20
2022-10-31T05:16:02.706Z,7.05
2022-10-31T05:17:04.311Z,7.32
2022-10-31T05:18:05.998Z,7.05
2022-10-31T05:19:07.616Z,6.70
2022-10-31T05:20:10.124Z,7.82
2022-10-31T05:21:11.746Z,6.55
2022-10-31T05:22:13.420Z,7.32
2022-10-31T05:23:15.193Z,6.18
2022-10-31T05:24:16.816Z,7.25
2022-10-31T05:25:19.838Z,7.60
2022-10-31T05:26:21.478Z,7.90
2022-10-31T05:27:23.150Z,7.10
2022-10-31T05:28:24.818Z,7.15
2022-10-31T05:29:26.406Z,7.30
2022-10-31T05:30:30.500Z,7.88
2022-10-31T05:31:32.114Z,7.35
2022-10-31T05:32:45.130Z,6.75
2022-10-31T05:33:46.851Z,7.43
2022-10-31T05:34:48.442Z,7.20
2022-10-31T05:35:50.066Z,6.82
2022-10-31T05:36:51.701Z,7.68
2022-10-31T05:37:53.631Z,7.13
2022-10-31T05:38:55.461Z,6.80
2022-10-31T05:39:57.063Z,6.70
2022-10-31T05:41:00.841Z,6.95
2022-10-31T05:42:02.530Z,6.72
2022-10-31T05:43:04.408Z,6.32
2022-10-31T05:44:06.226Z,7.82
2022-10-31T05:45:09.959Z,7.10
2022-10-31T05:46:11.605Z,6.68
2022-10-31T05:47:13.215Z,7.00
2022-10-31T05:48:14.812Z,6.95
2022-10-31T05:49:18.290Z,6.90
2022-10-31T05:50:20.519Z,6.53
2022-10-31T05:51:22.147Z,6.88
2022-10-31T05:52:23.837Z,7.97
2022-10-31T05:53:25.433Z,6.90
2022-10-31T05:54:27.089Z,6.88
2022-10-31T05:55:29.446Z,7.18
2022-10-31T05:56:31.495Z,9.05
2022-10-31T05:57:34.106Z,11.27
2022-10-31T05:58:35.729Z,8.48
2022-10-31T05:59:37.374Z,8.85
2022-10-31T06:00:39.532Z,8.20
2022-10-31T06:01:41.155Z,7.57
2022-10-31T06:02:42.814Z,8.00
2022-10-31T06:03:44.447Z,7.60
2022-10-31T06:04:46.198Z,7.93
2022-10-31T06:05:50.805Z,8.52
2022-10-31T06:06:57.078Z,9.57
2022-10-31T06:07:59.465Z,7.28
2022-10-31T06:09:01.359Z,8.90
2022-10-31T06:10:05.735Z,9.43
2022-10-31T06:11:07.475Z,10.30
2022-10-31T06:12:09.059Z,8.90
2022-10-31T06:13:10.666Z,8.10
2022-10-31T06:14:12.319Z,10.20
2022-10-31T06:15:14.303Z,8.38
2022-10-31T06:16:15.895Z,7.57
2022-10-31T06:17:17.520Z,7.60
2022-10-31T06:18:19.192Z,6.50
2022-10-31T06:19:20.782Z,6.60
2022-10-31T06:20:22.406Z,7.15
2022-10-31T06:21:24.419Z,5.95
2022-10-31T06:22:26.067Z,5.72
2022-10-31T06:23:27.669Z,8.68
2022-10-31T06:24:29.271Z,6.38
2022-10-31T06:25:30.899Z,6.55
2022-10-31T06:26:32.477Z,5.70
2022-10-31T06:27:34.085Z,7.20
2022-10-31T06:28:35.685Z,6.55
2022-10-31T06:29:37.275Z,6.25
2022-10-31T06:30:38.953Z,6.40
2022-10-31T06:31:40.548Z,6.30
2022-10-31T06:32:42.228Z,5.80
2022-10-31T06:33:43.835Z,6.10
2022-10-31T06:34:45.648Z,5.95
2022-10-31T06:35:48.396Z,5.88
2022-10-31T06:36:50.356Z,5.65
2022-10-31T06:37:53.639Z,6.25
2022-10-31T06:38:55.287Z,6.70
2022-10-31T06:39:56.863Z,6.43
2022-10-31T06:40:58.649Z,6.70
2022-10-31T06:42:00.386Z,7.35
2022-10-31T06:43:02.431Z,6.45
2022-10-31T06:44:06.592Z,7.78
2022-10-31T06:45:10.724Z,6.07
2022-10-31T06:46:12.322Z,6.60
2022-10-31T06:47:13.925Z,6.68
2022-10-31T06:48:17.691Z,6.75
2022-10-31T06:49:20.058Z,6.90
2022-10-31T06:50:22.466Z,7.20
2022-10-31T06:51:24.163Z,6.68
2022-10-31T06:52:25.766Z,7.15
2022-10-31T06:53:30.509Z,6.43
2022-10-31T06:54:32.126Z,6.93
2022-10-31T06:55:33.753Z,6.80
2022-10-31T06:56:35.391Z,6.50
2022-10-31T06:57:36.997Z,7.47
2022-10-31T06:58:38.583Z,6.95
2022-10-31T06:59:40.170Z,7.47
2022-10-31T07:00:41.799Z,6.68
2022-10-31T07:01:43.907Z,6.68
2022-10-31T07:02:54.344Z,7.28
2022-10-31T07:03:55.936Z,6.55
2022-10-31T07:04:57.519Z,7.03
2022-10-31T07:05:59.570Z,7.43
2022-10-31T07:07:01.448Z,7.32
2022-10-31T07:08:08.106Z,6.97
2022-10-31T07:09:09.822Z,7.35
2022-10-31T07:11:12.946Z,13.77
2022-10-31T07:12:14.603Z,23.63
2022-10-31T07:13:16.192Z,25.88
2022-10-31T07:14:17.777Z,26.33
2022-10-31T07:15:19.375Z,26.55
2022-10-31T07:16:21.030Z,18.10
2022-10-31T07:17:29.688Z,20.67
2022-10-31T07:18:31.726Z,19.65
2022-10-31T07:19:33.342Z,18.65
2022-10-31T07:20:35.200Z,20.90
2022-10-31T07:21:36.778Z,20.10
2022-10-31T07:22:38.778Z,17.52
2022-10-31T07:23:40.346Z,16.98
2022-10-31T07:24:41.940Z,11.65
2022-10-31T07:25:43.608Z,11.02
2022-10-31T07:26:48.280Z,8.23
2022-10-31T07:27:50.340Z,10.00
2022-10-31T07:28:52.007Z,8.85
2022-10-31T07:29:53.608Z,8.40
2022-10-31T07:30:57.438Z,8.07
2022-10-31T07:31:59.089Z,7.85
2022-10-31T07:33:00.817Z,8.05
2022-10-31T07:34:02.442Z,7.78
2022-10-31T07:35:04.343Z,7.65
2022-10-31T07:36:06.357Z,7.40
2022-10-31T07:37:08.148Z,7.05
2022-10-31T07:38:11.670Z,7.68
2022-10-31T07:39:13.382Z,8.07
2022-10-31T07:40:15.612Z,7.88
2022-10-31T07:41:17.208Z,7.38
2022-10-31T07:42:18.786Z,7.05
2022-10-31T07:43:21.040Z,8.80
2022-10-31T07:44:22.664Z,7.85
2022-10-31T07:45:24.256Z,7.47
2022-10-31T07:46:25.872Z,8.27
2022-10-31T07:47:27.488Z,7.88
2022-10-31T07:48:29.191Z,7.30
2022-10-31T07:49:30.823Z,7.75
2022-10-31T07:50:36.611Z,7.82
2022-10-31T07:51:38.964Z,8.82
2022-10-31T07:52:43.439Z,9.10
2022-10-31T07:53:45.682Z,7.32
2022-10-31T07:54:47.255Z,8.27
2022-10-31T07:55:48.895Z,7.85
2022-10-31T07:56:50.524Z,8.52
2022-10-31T07:58:03.843Z,7.07
2022-10-31T07:59:05.571Z,8.27
2022-10-31T08:00:09.739Z,7.40
2022-10-31T08:02:13.181Z,8.65
2022-10-31T08:03:19.467Z,7.90
2022-10-31T08:04:21.546Z,8.75
2022-10-31T08:05:23.262Z,7.28
2022-10-31T08:06:24.854Z,7.88
2022-10-31T08:07:27.299Z,8.18
2022-10-31T08:08:32.292Z,8.05
2022-10-31T08:09:36.324Z,7.70
2022-10-31T08:10:38.288Z,7.10
2022-10-31T08:11:39.866Z,7.68
2022-10-31T08:12:41.455Z,7.75
2022-10-31T08:13:43.892Z,7.80
2022-10-31T08:14:45.573Z,7.80
2022-10-31T08:15:51.186Z,8.35
2022-10-31T08:16:54.241Z,7.60
2022-10-31T08:17:56.068Z,8.05
2022-10-31T08:18:57.693Z,8.80
2022-10-31T08:19:59.316Z,8.88
2022-10-31T08:21:00.878Z,7.80
2022-10-31T08:22:02.621Z,7.82
2022-10-31T08:23:05.835Z,9.30
2022-10-31T08:24:07.514Z,8.13
2022-10-31T08:25:10.011Z,7.65
2022-10-31T08:26:11.628Z,8.00
2022-10-31T08:27:13.200Z,7.50
2022-10-31T08:28:15.871Z,8.10
2022-10-31T08:29:17.472Z,8.38
2022-10-31T08:30:20.396Z,8.30
2022-10-31T08:31:22.466Z,7.78
2022-10-31T08:32:24.076Z,7.63
2022-10-31T08:33:25.693Z,8.98
2022-10-31T08:34:27.281Z,8.98
2022-10-31T08:35:29.338Z,7.35
2022-10-31T08:36:31.051Z,9.18
2022-10-31T08:37:32.631Z,8.02
2022-10-31T08:38:34.237Z,8.88
2022-10-31T08:39:35.818Z,8.10
2022-10-31T08:40:37.961Z,8.27
2022-10-31T08:41:39.701Z,8.13
2022-10-31T08:42:41.477Z,8.02
2022-10-31T08:43:43.098Z,8.00
2022-10-31T08:44:44.695Z,8.80
2022-10-31T08:45:50.018Z,9.25
2022-10-31T08:46:51.642Z,8.35
2022-10-31T08:47:57.257Z,8.45
2022-10-31T08:48:59.032Z,9.05
2022-10-31T08:50:00.629Z,15.98
2022-10-31T08:51:02.326Z,10.27
2022-10-31T08:52:04.103Z,9.23
2022-10-31T08:53:24.028Z,10.13
2022-10-31T08:54:25.634Z,9.73
2022-10-31T08:55:27.224Z,8.48
2022-10-31T08:56:28.824Z,8.15
2022-10-31T08:57:30.411Z,9.45
2022-10-31T08:58:35.146Z,8.57
2022-10-31T08:59:39.226Z,9.00
2022-10-31T09:00:41.256Z,8.40
2022-10-31T09:01:42.980Z,10.02
2022-10-31T09:02:44.729Z,8.98
2022-10-31T09:03:46.652Z,9.60
2022-10-31T09:04:48.269Z,9.80
2022-10-31T09:05:50.423Z,9.82
2022-10-31T09:08:16.615Z,9.75
2022-10-31T09:09:18.646Z,9.52
2022-10-31T09:10:20.277Z,8.98
2022-10-31T09:11:21.869Z,10.38
2022-10-31T09:12:24.837Z,8.32
2022-10-31T09:13:28.248Z,9.48
2022-10-31T09:14:30.039Z,9.65
2022-10-31T09:15:31.689Z,8.32
2022-10-31T09:16:33.283Z,9.27
2022-10-31T09:17:34.932Z,8.98
2022-10-31T09:18:36.530Z,9.40
2022-10-31T09:19:38.111Z,10.23
2022-10-31T09:20:41.791Z,7.87
2022-10-31T09:21:43.423Z,9.18
2022-10-31T09:22:45.228Z,9.73
2022-10-31T09:23:46.871Z,9.47
2022-10-31T09:24:48.467Z,9.50
2022-10-31T09:25:52.019Z,9.13
2022-10-31T09:26:53.623Z,9.38
2022-10-31T09:28:00.239Z,9.13
2022-10-31T09:29:02.911Z,9.55
2022-10-31T09:30:05.546Z,9.13
2022-10-31T09:31:07.182Z,9.27
2022-10-31T09:32:08.749Z,9.03
2022-10-31T09:33:14.558Z,8.60
2022-10-31T09:34:16.203Z,9.10
2022-10-31T09:35:20.391Z,8.63
2022-10-31T09:36:24.749Z,9.20
2022-10-31T09:37:26.331Z,9.13
2022-10-31T09:38:27.944Z,8.53
2022-10-31T09:39:29.553Z,10.67
2022-10-31T09:40:42.948Z,8.87
2022-10-31T09:42:04.785Z,9.03
2022-10-31T09:43:18.054Z,9.83
2022-10-31T09:44:51.557Z,8.67
2022-10-31T09:46:00.617Z,8.97
2022-10-31T09:47:06.262Z,9.47
2022-10-31T09:48:18.626Z,9.40
2022-10-31T09:49:53.720Z,10.60
2022-10-31T09:51:14.162Z,10.20
2022-10-31T09:52:28.054Z,8.40
2022-10-31T09:54:01.353Z,9.30
2022-10-31T09:55:27.899Z,9.10
2022-10-31T09:56:32.124Z,9.23
2022-10-31T09:57:36.619Z,9.20
2022-10-31T09:58:43.995Z,9.80
2022-10-31T09:59:47.624Z,10.00
2022-10-31T10:00:49.538Z,9.53
2022-10-31T10:02:22.674Z,8.90
2022-10-31T10:03:40.131Z,9.00
2022-10-31T10:05:02.060Z,10.80
2022-10-31T10:06:15.273Z,9.33
2022-10-31T10:07:31.910Z,9.83
2022-10-31T10:08:35.843Z,9.30
2022-10-31T10:09:37.475Z,9.70
2022-10-31T10:11:11.374Z,10.90
2022-10-31T10:12:41.101Z,9.90
2022-10-31T10:13:51.405Z,10.30
2022-10-31T10:15:29.373Z,9.60
2022-10-31T10:16:40.123Z,10.63
2022-10-31T10:18:01.685Z,9.63
2022-10-31T10:19:23.730Z,10.37
2022-10-31T10:21:03.291Z,10.80
2022-10-31T10:22:22.577Z,10.70
2022-10-31T10:23:37.505Z,11.33
2022-10-31T10:25:04.591Z,10.80
2022-10-31T10:26:18.205Z,10.60
2022-10-31T10:27:50.868Z,10.27
2022-10-31T10:29:29.865Z,11.23
2022-10-31T10:30:35.264Z,11.30
2022-10-31T10:31:42.362Z,11.00
2022-10-31T10:32:53.501Z,10.80
2022-10-31T10:34:25.463Z,10.07
2022-10-31T10:35:35.612Z,11.27
2022-10-31T10:36:46.005Z,10.00
2022-10-31T10:37:49.879Z,11.10
2022-10-31T10:38:56.196Z,10.70
2022-10-31T10:40:07.665Z,10.93
2022-10-31T10:41:16.952Z,11.87
2022-10-31T10:42:37.015Z,12.80
2022-10-31T10:43:39.257Z,12.27
2022-10-31T10:45:06.246Z,12.50
2022-10-31T10:47:01.079Z,12.77
2022-10-31T10:48:33.790Z,12.87
2022-10-31T10:49:51.088Z,11.87
2022-10-31T10:50:53.582Z,12.87
2022-10-31T10:52:19.236Z,11.27
2022-10-31T10:54:09.407Z,13.57
2022-10-31T10:55:15.066Z,14.70
2022-10-31T10:56:41.610Z,15.70
2022-10-31T10:58:01.712Z,14.53
2022-10-31T10:59:04.519Z,15.40
2022-10-31T11:00:20.385Z,15.60
2022-10-31T11:01:23.504Z,15.20
2022-10-31T11:02:28.056Z,13.80
2022-10-31T11:03:29.966Z,15.80
2022-10-31T11:04:36.764Z,15.37
2022-10-31T11:05:51.674Z,16.67
2022-10-31T11:07:08.179Z,15.83
2022-10-31T11:08:10.154Z,15.47
2022-10-31T11:09:11.957Z,13.90
2022-10-31T11:10:15.194Z,13.90
2022-10-31T11:11:31.818Z,13.53
2022-10-31T11:12:34.847Z,14.60
2022-10-31T11:13:37.211Z,14.60
2022-10-31T11:14:51.637Z,15.30
2022-10-31T11:15:57.792Z,16.57
2022-10-31T11:17:18.325Z,14.63
2022-10-31T11:18:27.858Z,15.63
2022-10-31T11:19:29.702Z,17.50
2022-10-31T11:20:36.992Z,15.07
2022-10-31T11:21:38.850Z,16.17
2022-10-31T11:22:45.890Z,15.97
2022-10-31T11:23:47.489Z,16.43
2022-10-31T11:24:49.143Z,15.60
2022-10-31T11:26:02.518Z,15.20
2022-10-31T11:27:20.728Z,16.10
2022-10-31T11:28:23.296Z,14.50
2022-10-31T11:29:26.236Z,16.37
2022-10-31T11:30:28.375Z,15.77
2022-10-31T11:31:30.702Z,15.10
2022-10-31T11:32:32.825Z,15.70
2022-10-31T11:33:55.487Z,14.47
2022-10-31T11:35:04.567Z,15.90
2022-10-31T11:36:25.742Z,14.83
2022-10-31T11:37:31.118Z,15.10
2022-10-31T11:38:41.740Z,14.80
2022-10-31T11:39:46.188Z,14.80
2022-10-31T11:41:15.486Z,15.03
2022-10-31T11:42:17.092Z,15.73
2022-10-31T11:43:19.723Z,15.40
2022-10-31T11:44:30.052Z,14.60
2022-10-31T11:45:37.703Z,13.87
2022-10-31T11:46:45.782Z,15.67
2022-10-31T11:47:54.045Z,15.13
2022-10-31T11:48:58.515Z,15.00
2022-10-31T11:50:03.864Z,15.50
2022-10-31T11:51:06.062Z,17.17
2022-10-31T11:52:14.037Z,16.33
2022-10-31T11:53:23.723Z,15.33
2022-10-31T11:54:35.898Z,14.10
2022-10-31T11:55:40.672Z,14.60
2022-10-31T11:56:43.294Z,15.50
2022-10-31T11:57:53.042Z,15.47
2022-10-31T11:58:58.396Z,16.03
2022-10-31T12:00:04.343Z,14.27
2022-10-31T12:01:06.152Z,14.07
2022-10-31T12:02:20.331Z,13.60
2022-10-31T12:03:33.028Z,14.90
2022-10-31T12:05:12.607Z,14.10
2022-10-31T12:06:21.641Z,14.70
2022-10-31T12:07:24.483Z,14.30
2022-10-31T12:08:31.149Z,14.47
2022-10-31T12:09:37.834Z,13.70
2022-10-31T12:10:58.381Z,15.23
2022-10-31T12:12:09.024Z,15.30
2022-10-31T12:13:33.323Z,15.50
2022-10-31T12:14:58.922Z,13.97
2022-10-31T12:16:10.340Z,14.33
2022-10-31T12:17:34.266Z,14.70
2022-10-31T12:18:59.144Z,15.17
2022-10-31T12:20:09.489Z,14.10
2022-10-31T12:21:45.792Z,14.33
2022-10-31T12:23:11.013Z,13.50
2022-10-31T12:24:30.960Z,14.80
2022-10-31T12:25:51.580Z,12.30
2022-10-31T12:27:19.610Z,14.90
2022-10-31T12:28:55.154Z,14.67
2022-10-31T12:30:09.330Z,13.83
2022-10-31T12:31:42.623Z,14.10
2022-10-31T12:33:02.743Z,12.60
2022-10-31T12:34:32.233Z,13.87
2022-10-31T12:35:42.673Z,13.03
2022-10-31T12:37:23.036Z,14.13
2022-10-31T12:38:43.777Z,14.70
2022-10-31T12:40:25.064Z,14.00
2022-10-31T12:41:52.867Z,14.87
2022-10-31T12:43:12.501Z,14.70
2022-10-31T12:44:33.955Z,14.03
2022-10-31T12:46:00.052Z,13.40
2022-10-31T12:47:26.668Z,16.23
2022-10-31T12:49:09.486Z,14.63
2022-10-31T12:50:16.473Z,15.53
2022-10-31T12:51:29.727Z,15.63
2022-10-31T12:52:55.543Z,14.90
2022-10-31T12:54:08.641Z,14.93
2022-10-31T12:55:25.553Z,15.73
2022-10-31T12:56:39.252Z,16.67
2022-10-31T12:57:46.064Z,15.97
2022-10-31T12:58:56.159Z,14.83
2022-10-31T13:00:00.334Z,16.40
2022-10-31T13:01:10.620Z,14.77
2022-10-31T13:02:23.768Z,17.30
2022-10-31T13:03:56.891Z,16.40
2022-10-31T13:05:04.562Z,17.33
2022-10-31T13:07:18.158Z,16.10
2022-10-31T13:08:29.697Z,17.30
2022-10-31T13:09:42.091Z,16.90
2022-10-31T13:10:52.093Z,16.37
2022-10-31T13:11:59.606Z,16.60
2022-10-31T13:13:24.316Z,18.87
2022-10-31T13:14:37.881Z,17.40
2022-10-31T13:15:51.506Z,17.20
2022-10-31T13:16:56.131Z,17.30
2022-10-31T13:18:01.998Z,16.17
2022-10-31T13:19:21.503Z,17.00
2022-10-31T13:20:29.380Z,15.63
2022-10-31T13:21:42.473Z,16.97
2022-10-31T13:22:47.790Z,17.40
2022-10-31T13:23:52.699Z,18.27
2022-10-31T13:25:04.613Z,17.90
2022-10-31T13:26:37.696Z,18.27
2022-10-31T13:27:56.280Z,17.60
2022-10-31T13:29:13.187Z,16.60
2022-10-31T13:30:23.637Z,16.43
2022-10-31T13:31:25.345Z,17.90
2022-10-31T13:32:31.431Z,17.63
2022-10-31T13:33:40.191Z,17.80
2022-10-31T13:34:48.047Z,17.23
2022-10-31T13:36:20.049Z,17.70
2022-10-31T13:37:27.893Z,15.60
2022-10-31T13:38:55.747Z,16.10
2022-10-31T13:40:17.135Z,17.33
2022-10-31T13:41:50.926Z,16.50
2022-10-31T13:43:21.394Z,16.57
2022-10-31T13:44:28.341Z,15.70
2022-10-31T13:45:29.959Z,16.80
2022-10-31T13:46:34.489Z,15.10
2022-10-31T13:47:36.223Z,17.10
2022-10-31T13:48:42.219Z,17.00
2022-10-31T13:49:43.886Z,15.63
2022-10-31T13:50:58.964Z,15.50
2022-10-31T13:52:12.359Z,13.53
2022-10-31T13:53:21.882Z,14.40
2022-10-31T13:54:33.653Z,14.50
2022-10-31T13:55:44.091Z,14.40
2022-10-31T13:56:51.269Z,14.10
2022-10-31T13:57:54.011Z,14.60
2022-10-31T13:59:10.902Z,14.30
2022-10-31T14:00:21.372Z,13.87
2022-10-31T14:01:23.561Z,15.50
2022-10-31T14:02:34.155Z,14.37
2022-10-31T14:05:08.766Z,14.27
2022-10-31T14:06:13.946Z,15.30
2022-10-31T14:07:19.371Z,14.43
2022-10-31T14:08:23.502Z,15.00
2022-10-31T14:09:32.769Z,13.50
2022-10-31T14:10:37.842Z,15.50
2022-10-31T14:11:39.548Z,14.70
2022-10-31T14:12:45.400Z,13.70
2022-10-31T14:13:47.795Z,14.50
2022-10-31T14:14:53.401Z,13.00
2022-10-31T14:15:58.332Z,13.30
2022-10-31T14:17:00.913Z,12.60
2022-10-31T14:18:06.433Z,14.20
2022-10-31T14:19:15.339Z,13.30
2022-10-31T14:20:16.904Z,12.83
2022-10-31T14:21:24.804Z,13.03
2022-10-31T14:22:37.452Z,12.83
2022-10-31T14:23:44.788Z,14.00
2022-10-31T14:24:46.573Z,13.40
2022-10-31T14:25:48.250Z,13.77
2022-10-31T14:27:22.628Z,12.83
2022-10-31T14:28:36.126Z,13.10
2022-10-31T14:29:37.715Z,12.17
2022-10-31T14:30:39.479Z,13.77
2022-10-31T14:31:54.986Z,13.07
2022-10-31T14:33:03.319Z,13.70
2022-10-31T14:34:17.195Z,13.53
2022-10-31T14:35:21.497Z,12.30
2022-10-31T14:36:43.972Z,13.13
2022-10-31T14:38:22.748Z,12.80
2022-10-31T14:39:32.588Z,13.67
2022-10-31T14:40:58.485Z,13.40
2022-10-31T14:42:08.993Z,12.90
2022-10-31T14:43:21.034Z,13.00
2022-10-31T14:44:34.743Z,12.93
2022-10-31T14:45:39.352Z,11.20
2022-10-31T14:46:56.413Z,12.20
2022-10-31T14:48:06.787Z,11.93
2022-10-31T14:49:40.382Z,10.50
2022-10-31T14:50:51.230Z,10.60
2022-10-31T14:51:53.391Z,11.87
2022-10-31T14:52:58.336Z,12.53